createdAt,value
2019-05-29T00:00:41.056Z,51.80
2019-05-29T00:03:10.482Z,52.10
2019-05-29T00:05:39.110Z,52.30
2019-05-29T00:08:08.251Z,52.90
2019-05-29T00:10:36.958Z,52.60
2019-05-29T00:13:06.204Z,52.60
2019-05-29T00:15:35.128Z,52.60
2019-05-29T00:18:03.603Z,52.60
2019-05-29T00:20:32.036Z,52.70
2019-05-29T00:23:00.613Z,52.80
2019-05-29T00:25:29.062Z,53.00
2019-05-29T00:27:57.515Z,53.00
2019-05-29T00:30:26.031Z,53.20
2019-05-29T00:32:54.600Z,53.40
2019-05-29T00:35:23.076Z,53.60
2019-05-29T00:37:51.539Z,53.80
2019-05-29T00:40:20.099Z,54.40
2019-05-29T00:42:48.556Z,54.20
2019-05-29T00:45:17.939Z,54.20
2019-05-29T00:47:46.437Z,54.00
2019-05-29T00:50:16.156Z,54.30
2019-05-29T00:52:44.745Z,54.40
2019-05-29T00:55:14.592Z,54.70
2019-05-29T00:57:43.391Z,54.40
2019-05-29T01:00:13.192Z,54.40
2019-05-29T01:02:41.786Z,54.80
2019-05-29T01:05:11.885Z,54.80
2019-05-29T01:07:40.578Z,54.90
2019-05-29T01:10:10.582Z,55.10
2019-05-29T01:12:39.135Z,55.20
2019-05-29T01:15:07.931Z,55.20
2019-05-29T01:17:36.379Z,55.20
2019-05-29T01:20:08.794Z,55.40
2019-05-29T01:22:37.245Z,55.40
2019-05-29T01:25:06.431Z,55.50
2019-05-29T01:27:34.878Z,55.80
2019-05-29T01:30:04.466Z,55.60
2019-05-29T01:32:32.909Z,55.20
2019-05-29T01:35:01.368Z,55.10
2019-05-29T01:37:29.819Z,55.20
2019-05-29T01:39:58.355Z,55.70
2019-05-29T01:42:27.755Z,55.00
2019-05-29T01:45:07.235Z,54.90
2019-05-29T01:47:27.931Z,54.60
2019-05-29T01:49:56.744Z,54.70
2019-05-29T01:52:25.187Z,54.80
2019-05-29T01:54:53.646Z,54.60
2019-05-29T01:57:22.097Z,54.60
2019-05-29T01:59:50.557Z,54.40
2019-05-29T02:02:19.858Z,54.30
2019-05-29T02:04:48.428Z,54.50
2019-05-29T02:07:17.939Z,54.60
2019-05-29T02:09:46.654Z,54.80
2019-05-29T02:12:16.202Z,55.10
2019-05-29T02:14:44.926Z,54.90
2019-05-29T02:17:13.431Z,55.20
2019-05-29T02:19:41.909Z,55.20
2019-05-29T02:22:10.353Z,55.30
2019-05-29T02:24:39.051Z,55.20
2019-05-29T02:27:07.515Z,55.20
2019-05-29T02:29:35.951Z,55.20
2019-05-29T02:32:04.616Z,55.00
2019-05-29T02:34:33.064Z,54.90
2019-05-29T02:37:01.588Z,54.70
2019-05-29T02:39:30.104Z,54.70
2019-05-29T02:41:58.724Z,54.50
2019-05-29T02:44:27.689Z,54.50
2019-05-29T02:46:56.741Z,54.20
2019-05-29T02:49:25.819Z,54.00
2019-05-29T02:51:54.541Z,54.10
2019-05-29T02:54:24.713Z,54.10
2019-05-29T02:56:53.241Z,54.30
2019-05-29T02:59:23.272Z,54.50
2019-05-29T03:01:52.136Z,54.70
2019-05-29T03:04:21.676Z,55.10
2019-05-29T03:06:50.392Z,55.40
2019-05-29T03:09:18.975Z,55.60
2019-05-29T03:11:47.603Z,56.10
2019-05-29T03:14:16.043Z,56.40
2019-05-29T03:16:44.514Z,56.60
2019-05-29T03:19:13.035Z,56.80
2019-05-29T03:21:41.833Z,57.00
2019-05-29T03:24:10.351Z,57.10
2019-05-29T03:26:38.812Z,57.20
2019-05-29T03:29:07.245Z,57.10
2019-05-29T03:31:43.527Z,57.00
2019-05-29T03:34:05.878Z,57.20
2019-05-29T03:36:42.486Z,57.10
2019-05-29T03:39:06.579Z,57.40
2019-05-29T03:41:35.061Z,57.20
2019-05-29T03:44:03.634Z,57.00
2019-05-29T03:46:41.108Z,57.00
2019-05-29T03:49:02.335Z,57.00
2019-05-29T03:51:32.477Z,57.20
2019-05-29T03:54:01.200Z,57.00
2019-05-29T03:56:30.637Z,57.10
2019-05-29T03:58:59.387Z,57.30
2019-05-29T04:01:29.104Z,57.30
2019-05-29T04:03:58.248Z,57.20
2019-05-29T04:06:27.024Z,57.10
2019-05-29T04:08:55.625Z,57.10
2019-05-29T04:11:24.123Z,56.60
2019-05-29T04:13:52.601Z,56.80
2019-05-29T04:16:23.638Z,57.00
2019-05-29T04:18:53.330Z,56.80
2019-05-29T04:21:24.979Z,56.90
2019-05-29T04:23:55.944Z,56.90
2019-05-29T04:26:25.724Z,56.80
2019-05-29T04:28:54.419Z,56.70
2019-05-29T04:31:23.003Z,56.50
2019-05-29T04:33:51.514Z,56.70
2019-05-29T04:36:20.025Z,56.90
2019-05-29T04:38:48.560Z,56.60
2019-05-29T04:41:17.091Z,56.50
2019-05-29T04:43:48.888Z,56.50
2019-05-29T04:46:17.902Z,56.40
2019-05-29T04:48:46.426Z,56.10
2019-05-29T04:51:14.950Z,56.10
2019-05-29T04:53:43.413Z,55.90
2019-05-29T04:56:12.064Z,56.00
2019-05-29T04:58:40.587Z,56.00
2019-05-29T05:01:09.076Z,56.10
2019-05-29T05:03:37.576Z,55.90
2019-05-29T05:06:06.018Z,55.70
2019-05-29T05:08:35.414Z,55.50
2019-05-29T05:11:03.883Z,55.40
2019-05-29T05:13:33.440Z,55.50
2019-05-29T05:16:03.031Z,55.40
2019-05-29T05:18:31.784Z,55.50
2019-05-29T05:21:00.301Z,55.50
2019-05-29T05:23:30.069Z,55.40
2019-05-29T05:25:58.632Z,55.20
2019-05-29T05:28:27.086Z,56.00
2019-05-29T05:30:55.527Z,55.50
2019-05-29T05:33:23.959Z,55.50
2019-05-29T05:35:52.436Z,55.20
2019-05-29T05:38:20.935Z,55.20
2019-05-29T05:40:49.391Z,55.20
2019-05-29T05:43:24.024Z,54.60
2019-05-29T05:45:48.019Z,54.70
2019-05-29T05:48:16.501Z,54.80
2019-05-29T05:50:44.999Z,54.30
2019-05-29T05:53:13.499Z,54.20
2019-05-29T05:55:41.968Z,53.70
2019-05-29T05:58:10.397Z,53.50
2019-05-29T06:00:39.873Z,53.50
2019-05-29T06:03:08.456Z,53.60
2019-05-29T06:05:38.103Z,53.30
2019-05-29T06:08:06.856Z,53.90
2019-05-29T06:10:36.135Z,53.40
2019-05-29T06:13:04.878Z,53.30
2019-05-29T06:15:34.317Z,53.40
2019-05-29T06:18:19.831Z,53.30
2019-05-29T06:20:33.012Z,53.00
2019-05-29T06:23:01.448Z,54.60
2019-05-29T06:25:29.939Z,54.10
2019-05-29T06:27:58.378Z,52.80
2019-05-29T06:30:27.059Z,52.90
2019-05-29T06:32:55.502Z,52.60
2019-05-29T06:35:24.395Z,52.30
2019-05-29T06:37:52.836Z,51.80
2019-05-29T06:40:40.218Z,52.00
2019-05-29T06:43:14.467Z,51.70
2019-05-29T06:45:44.038Z,51.40
2019-05-29T06:48:15.820Z,51.30
2019-05-29T06:50:44.297Z,51.00
2019-05-29T06:53:12.727Z,51.10
2019-05-29T06:55:42.159Z,50.90
2019-05-29T06:58:10.712Z,50.50
2019-05-29T07:00:39.868Z,51.00
2019-05-29T07:03:09.519Z,50.40
2019-05-29T07:05:37.970Z,49.90
2019-05-29T07:08:18.019Z,50.40
2019-05-29T07:10:38.123Z,50.70
2019-05-29T07:13:07.195Z,50.10
2019-05-29T07:15:36.498Z,50.00
2019-05-29T07:18:05.222Z,49.10
2019-05-29T07:20:33.676Z,49.00
2019-05-29T07:23:02.139Z,49.60
2019-05-29T07:25:30.601Z,49.20
2019-05-29T07:27:59.035Z,49.00
2019-05-29T07:30:29.119Z,48.90
2019-05-29T07:32:59.115Z,49.10
2019-05-29T07:35:27.851Z,48.60
2019-05-29T07:37:56.403Z,49.60
2019-05-29T07:40:24.927Z,49.00
2019-05-29T07:42:56.816Z,48.90
2019-05-29T07:45:23.634Z,48.60
2019-05-29T07:47:52.164Z,47.00
2019-05-29T07:50:20.714Z,47.30
2019-05-29T07:52:49.377Z,45.80
2019-05-29T07:55:18.115Z,46.00
2019-05-29T07:57:47.017Z,45.40
2019-05-29T08:00:16.134Z,45.00
2019-05-29T08:02:45.406Z,45.10
2019-05-29T08:05:14.577Z,43.70
2019-05-29T08:07:43.382Z,43.70
2019-05-29T08:10:12.896Z,42.90
2019-05-29T08:12:46.390Z,42.20
2019-05-29T08:15:11.847Z,41.70
2019-05-29T08:17:40.326Z,41.40
2019-05-29T08:20:09.620Z,40.50
2019-05-29T08:22:38.392Z,39.90
2019-05-29T08:25:07.068Z,39.60
2019-05-29T08:27:35.682Z,39.30
2019-05-29T08:30:07.187Z,38.10
2019-05-29T08:32:35.696Z,38.50
2019-05-29T08:35:06.827Z,39.30
2019-05-29T08:37:35.283Z,37.80
2019-05-29T08:40:05.550Z,37.70
2019-05-29T08:42:34.013Z,37.60
2019-05-29T08:45:02.447Z,36.60
2019-05-29T08:47:30.894Z,35.80
2019-05-29T08:50:16.803Z,36.40
2019-05-29T08:52:29.523Z,37.30
2019-05-29T08:54:58.057Z,35.10
2019-05-29T08:57:26.503Z,34.70
2019-05-29T08:59:54.956Z,35.40
2019-05-29T09:02:23.419Z,36.20
2019-05-29T09:04:53.089Z,36.30
2019-05-29T09:07:22.041Z,36.00
2019-05-29T09:09:51.277Z,35.70
2019-05-29T09:12:20.061Z,36.80
2019-05-29T09:14:50.539Z,37.30
2019-05-29T09:17:18.763Z,36.50
2019-05-29T09:19:47.283Z,37.10
2019-05-29T09:22:16.541Z,37.80
2019-05-29T09:24:45.059Z,36.20
2019-05-29T09:27:14.469Z,35.90
2019-05-29T09:29:43.799Z,36.40
2019-05-29T09:32:13.468Z,35.40
2019-05-29T09:34:42.769Z,35.60
2019-05-29T09:37:11.298Z,36.60
2019-05-29T09:39:39.868Z,36.30
2019-05-29T09:42:08.679Z,34.60
2019-05-29T09:44:39.428Z,35.00
2019-05-29T09:47:07.641Z,35.60
2019-05-29T09:49:36.363Z,35.50
2019-05-29T09:52:05.167Z,35.80
2019-05-29T09:54:33.785Z,35.50
2019-05-29T09:57:02.853Z,36.10
2019-05-29T09:59:31.435Z,36.10
2019-05-29T10:02:04.954Z,36.30
2019-05-29T10:04:30.045Z,36.60
2019-05-29T10:06:59.566Z,37.20
2019-05-29T10:09:28.413Z,37.80
2019-05-29T10:12:00.984Z,37.80
2019-05-29T10:14:27.075Z,36.40
2019-05-29T10:16:58.262Z,37.10
2019-05-29T10:19:25.694Z,35.80
2019-05-29T10:21:54.835Z,34.00
2019-05-29T10:24:24.367Z,34.30
2019-05-29T10:26:52.808Z,34.10
2019-05-29T10:29:21.262Z,33.00
2019-05-29T10:31:51.129Z,33.10
2019-05-29T10:34:19.887Z,32.50
2019-05-29T10:36:51.898Z,31.80
2019-05-29T10:39:18.524Z,32.80
2019-05-29T10:41:47.033Z,33.20
2019-05-29T10:44:15.505Z,34.20
2019-05-29T10:46:47.354Z,35.50
2019-05-29T10:49:14.177Z,35.50
2019-05-29T10:51:57.977Z,35.50
2019-05-29T10:54:12.847Z,36.20
2019-05-29T10:56:41.356Z,34.80
2019-05-29T10:59:09.825Z,35.90
2019-05-29T11:01:38.263Z,35.90
2019-05-29T11:04:07.020Z,35.90
2019-05-29T11:06:39.371Z,35.40
2019-05-29T11:09:07.392Z,35.10
2019-05-29T11:11:35.896Z,34.30
2019-05-29T11:14:04.488Z,34.90
2019-05-29T11:16:32.930Z,35.00
2019-05-29T11:19:01.410Z,35.40
2019-05-29T11:21:29.867Z,35.50
2019-05-29T11:23:58.648Z,36.80
2019-05-29T11:26:27.466Z,35.60
2019-05-29T11:28:56.632Z,33.80
2019-05-29T11:31:25.220Z,33.10
2019-05-29T11:33:54.893Z,34.00
2019-05-29T11:36:23.586Z,32.30
2019-05-29T11:38:54.289Z,30.10
2019-05-29T11:41:26.367Z,29.40
2019-05-29T11:43:54.615Z,30.00
2019-05-29T11:46:23.294Z,29.80
2019-05-29T11:48:53.019Z,30.20
2019-05-29T11:51:21.751Z,30.70
2019-05-29T11:53:51.350Z,31.40
2019-05-29T11:56:20.083Z,31.80
2019-05-29T11:58:48.525Z,31.60
2019-05-29T12:01:17.053Z,32.00
2019-05-29T12:04:07.779Z,32.70
2019-05-29T12:06:15.724Z,33.90
2019-05-29T12:08:44.188Z,33.70
2019-05-29T12:11:12.650Z,32.90
2019-05-29T12:13:41.079Z,31.80
2019-05-29T12:16:09.612Z,31.70
2019-05-29T12:18:38.044Z,31.00
2019-05-29T12:21:06.502Z,30.10
2019-05-29T12:23:34.939Z,29.40
2019-05-29T12:26:20.959Z,28.80
2019-05-29T12:28:33.596Z,28.80
2019-05-29T12:31:03.449Z,28.70
2019-05-29T12:33:32.068Z,28.50
2019-05-29T12:36:01.277Z,28.50
2019-05-29T12:38:29.821Z,28.60
2019-05-29T12:40:59.681Z,29.90
2019-05-29T12:43:28.411Z,29.80
2019-05-29T12:45:57.755Z,30.40
2019-05-29T12:48:26.349Z,30.70
2019-05-29T12:50:56.099Z,31.10
2019-05-29T12:53:30.068Z,31.90
2019-05-29T12:55:56.129Z,31.40
2019-05-29T12:58:24.753Z,31.60
2019-05-29T13:00:54.475Z,31.50
2019-05-29T13:03:23.132Z,31.50
2019-05-29T13:05:51.836Z,30.70
2019-05-29T13:08:20.291Z,30.80
2019-05-29T13:10:48.809Z,31.80
2019-05-29T13:13:17.265Z,31.70
2019-05-29T13:15:45.709Z,31.60
2019-05-29T13:18:14.311Z,32.80
2019-05-29T13:20:42.803Z,32.10
2019-05-29T13:23:11.268Z,30.60
2019-05-29T13:25:39.775Z,29.50
2019-05-29T13:28:08.227Z,28.90
2019-05-29T13:30:38.252Z,28.30
2019-05-29T13:33:08.903Z,26.50
2019-05-29T13:35:37.091Z,25.10
2019-05-29T13:38:05.542Z,24.70
2019-05-29T13:40:33.975Z,24.30
2019-05-29T13:43:11.446Z,24.30
2019-05-29T13:45:32.675Z,23.80
2019-05-29T13:48:01.406Z,23.10
2019-05-29T13:50:30.127Z,22.20
2019-05-29T13:52:59.350Z,22.00
2019-05-29T13:55:28.026Z,22.50
2019-05-29T13:57:57.612Z,21.70
2019-05-29T14:00:33.275Z,22.40
2019-05-29T14:02:58.236Z,23.50
2019-05-29T14:05:26.879Z,22.80
2019-05-29T14:07:55.333Z,22.40
2019-05-29T14:10:23.757Z,21.80
2019-05-29T14:12:52.223Z,21.30
2019-05-29T14:15:20.813Z,21.30
2019-05-29T14:17:49.272Z,21.20
2019-05-29T14:20:18.747Z,21.40
2019-05-29T14:22:48.732Z,21.90
2019-05-29T14:25:17.291Z,22.20
2019-05-29T14:27:45.751Z,23.00
2019-05-29T14:30:14.792Z,23.90
2019-05-29T14:32:43.254Z,25.20
2019-05-29T14:35:13.405Z,25.50
2019-05-29T14:37:42.364Z,26.40
2019-05-29T14:40:12.079Z,26.70
2019-05-29T14:42:41.566Z,26.50
2019-05-29T14:45:10.780Z,26.90
2019-05-29T14:47:40.951Z,27.10
2019-05-29T14:50:11.135Z,27.40
2019-05-29T14:52:39.892Z,28.00
2019-05-29T14:55:11.399Z,29.50
2019-05-29T14:57:39.036Z,28.90
2019-05-29T15:00:22.144Z,29.80
2019-05-29T15:02:40.449Z,29.10
2019-05-29T15:05:09.763Z,27.50
2019-05-29T15:07:38.563Z,27.00
2019-05-29T15:10:19.746Z,26.80
2019-05-29T15:12:38.740Z,26.70
2019-05-29T15:15:08.858Z,26.90
2019-05-29T15:17:37.783Z,26.80
2019-05-29T15:20:10.445Z,26.90
2019-05-29T15:22:40.080Z,27.30
2019-05-29T15:25:18.442Z,27.80
2019-05-29T15:27:39.450Z,28.30
2019-05-29T15:30:11.299Z,28.80
2019-05-29T15:32:40.206Z,29.30
2019-05-29T15:35:13.737Z,29.00
2019-05-29T15:37:39.657Z,29.20
2019-05-29T15:40:09.018Z,28.70
2019-05-29T15:42:37.522Z,28.00
2019-05-29T15:45:08.083Z,27.60
2019-05-29T15:47:36.799Z,27.50
2019-05-29T15:50:11.804Z,27.90
2019-05-29T15:52:41.556Z,28.40
2019-05-29T15:55:27.293Z,28.60
2019-05-29T15:57:40.922Z,28.20
2019-05-29T16:00:11.559Z,29.00
2019-05-29T16:02:40.158Z,28.50
2019-05-29T16:05:11.104Z,29.00
2019-05-29T16:07:39.822Z,29.70
2019-05-29T16:10:13.111Z,30.00
2019-05-29T16:12:40.215Z,30.50
2019-05-29T16:15:11.022Z,30.80
2019-05-29T16:17:39.887Z,30.30
2019-05-29T16:20:12.353Z,30.80
2019-05-29T16:22:40.946Z,30.20
2019-05-29T16:25:10.803Z,30.00
2019-05-29T16:27:39.465Z,30.00
2019-05-29T16:30:08.901Z,30.30
2019-05-29T16:32:37.364Z,30.00
2019-05-29T16:35:07.559Z,30.00
2019-05-29T16:37:35.995Z,30.50
2019-05-29T16:40:14.181Z,30.50
2019-05-29T16:42:42.839Z,30.20
2019-05-29T16:45:12.360Z,29.70
2019-05-29T16:47:40.919Z,29.40
2019-05-29T16:50:09.807Z,29.50
2019-05-29T16:52:38.407Z,29.80
2019-05-29T16:55:07.591Z,29.80
2019-05-29T16:57:36.097Z,30.20
2019-05-29T17:00:10.635Z,31.10
2019-05-29T17:02:39.486Z,30.80
2019-05-29T17:05:08.960Z,31.10
2019-05-29T17:07:39.000Z,32.00
2019-05-29T17:10:09.885Z,31.50
2019-05-29T17:12:38.399Z,31.90
2019-05-29T17:15:11.601Z,31.90
2019-05-29T17:17:40.066Z,32.10
2019-05-29T17:20:10.863Z,32.90
2019-05-29T17:22:39.359Z,33.50
2019-05-29T17:25:08.246Z,35.20
2019-05-29T17:27:36.713Z,36.20
2019-05-29T17:30:09.227Z,36.80
2019-05-29T17:32:37.760Z,37.30
2019-05-29T17:35:07.999Z,38.00
2019-05-29T17:37:36.984Z,38.30
2019-05-29T17:40:07.779Z,38.60
2019-05-29T17:42:36.323Z,38.90
2019-05-29T17:45:09.659Z,39.10
2019-05-29T17:47:39.153Z,38.70
2019-05-29T17:50:07.896Z,39.00
2019-05-29T17:52:36.432Z,39.20
2019-05-29T17:55:06.907Z,39.70
2019-05-29T17:57:35.490Z,39.90
2019-05-29T18:00:06.748Z,39.80
2019-05-29T18:02:50.808Z,39.90
2019-05-29T18:05:06.532Z,40.00
2019-05-29T18:07:34.983Z,39.10
2019-05-29T18:10:04.889Z,39.80
2019-05-29T18:12:33.364Z,39.70
2019-05-29T18:15:08.539Z,40.20
2019-05-29T18:17:37.445Z,39.80
2019-05-29T18:20:14.482Z,39.90
2019-05-29T18:22:41.397Z,39.70
2019-05-29T18:25:10.220Z,39.60
2019-05-29T18:27:38.687Z,39.80
2019-05-29T18:30:08.233Z,39.70
2019-05-29T18:32:37.420Z,39.90
2019-05-29T18:35:10.107Z,40.10
2019-05-29T18:37:38.559Z,40.20
2019-05-29T18:40:12.451Z,40.30
2019-05-29T18:42:39.430Z,40.50
2019-05-29T18:45:20.252Z,40.60
2019-05-29T18:47:39.086Z,40.60
2019-05-29T18:50:08.555Z,40.80
2019-05-29T18:52:37.075Z,41.20
2019-05-29T18:55:07.253Z,41.50
2019-05-29T18:57:35.707Z,41.70
2019-05-29T19:00:09.851Z,42.00
2019-05-29T19:02:38.304Z,42.30
2019-05-29T19:05:07.188Z,42.70
2019-05-29T19:07:35.734Z,43.10
2019-05-29T19:10:07.040Z,43.10
2019-05-29T19:12:36.142Z,43.20
2019-05-29T19:15:06.677Z,43.30
2019-05-29T19:17:35.212Z,43.50
2019-05-29T19:20:04.423Z,43.70
2019-05-29T19:22:33.146Z,44.00
2019-05-29T19:25:01.856Z,44.40
2019-05-29T19:27:39.185Z,44.60
2019-05-29T19:30:00.523Z,45.20
2019-05-29T19:32:29.353Z,45.40
2019-05-29T19:34:57.902Z,45.80
2019-05-29T19:37:27.945Z,46.00
2019-05-29T19:39:56.507Z,46.30
2019-05-29T19:42:26.091Z,46.70
2019-05-29T19:44:54.743Z,47.10
2019-05-29T19:47:24.512Z,47.40
2019-05-29T19:49:53.405Z,47.50
2019-05-29T19:52:22.407Z,47.70
2019-05-29T19:54:51.307Z,47.80
2019-05-29T19:57:19.743Z,48.00
2019-05-29T19:59:48.215Z,48.00
2019-05-29T20:02:17.393Z,48.00
2019-05-29T20:04:45.959Z,47.90
2019-05-29T20:07:14.683Z,48.00
2019-05-29T20:09:43.130Z,48.20
2019-05-29T20:12:11.564Z,48.30
2019-05-29T20:14:40.039Z,48.50
2019-05-29T20:17:08.553Z,48.40
2019-05-29T20:19:39.638Z,47.90
2019-05-29T20:22:07.177Z,48.20
2019-05-29T20:24:36.890Z,47.90
2019-05-29T20:27:05.551Z,48.00
2019-05-29T20:29:53.341Z,48.10
2019-05-29T20:32:21.785Z,47.70
2019-05-29T20:34:50.238Z,48.50
2019-05-29T20:37:18.665Z,48.60
2019-05-29T20:39:47.120Z,48.60
2019-05-29T20:42:15.899Z,48.50
2019-05-29T20:44:44.491Z,48.20
2019-05-29T20:47:13.004Z,48.30
2019-05-29T20:49:42.263Z,48.70
2019-05-29T20:52:10.928Z,48.80
2019-05-29T20:54:39.724Z,48.90
2019-05-29T20:57:11.306Z,49.00
2019-05-29T20:59:42.014Z,49.00
2019-05-29T21:02:10.927Z,49.00
2019-05-29T21:04:40.580Z,48.90
2019-05-29T21:07:09.281Z,49.00
2019-05-29T21:09:38.946Z,49.30
2019-05-29T21:12:07.723Z,49.10
2019-05-29T21:14:37.487Z,49.30
2019-05-29T21:17:06.131Z,49.00
2019-05-29T21:19:34.595Z,49.00
2019-05-29T21:22:03.027Z,48.70
2019-05-29T21:24:31.487Z,48.90
2019-05-29T21:26:59.998Z,48.60
2019-05-29T21:29:28.473Z,48.60
2019-05-29T21:31:56.983Z,48.80
2019-05-29T21:34:25.462Z,48.90
2019-05-29T21:36:54.035Z,49.40
2019-05-29T21:39:22.495Z,48.90
2019-05-29T21:41:51.083Z,49.20
2019-05-29T21:44:19.515Z,49.20
2019-05-29T21:46:47.967Z,49.30
2019-05-29T21:49:16.398Z,49.40
2019-05-29T21:51:45.758Z,49.30
2019-05-29T21:54:14.375Z,49.30
2019-05-29T21:56:43.747Z,49.30
2019-05-29T21:59:12.252Z,49.50
2019-05-29T22:01:41.965Z,49.80
2019-05-29T22:04:10.630Z,50.80
2019-05-29T22:06:40.458Z,50.40
2019-05-29T22:09:12.155Z,50.30
2019-05-29T22:11:40.806Z,50.50
2019-05-29T22:14:09.380Z,50.60
2019-05-29T22:16:37.907Z,50.60
2019-05-29T22:19:06.694Z,50.60
2019-05-29T22:21:35.254Z,50.70
2019-05-29T22:24:03.763Z,50.60
2019-05-29T22:26:32.283Z,50.40
2019-05-29T22:29:15.669Z,50.30
2019-05-29T22:31:30.931Z,50.00
2019-05-29T22:33:59.561Z,49.90
2019-05-29T22:36:28.118Z,50.00
2019-05-29T22:38:57.489Z,50.00
2019-05-29T22:41:25.964Z,50.40
2019-05-29T22:43:55.395Z,50.80
2019-05-29T22:46:24.021Z,50.80
2019-05-29T22:48:53.586Z,50.80
2019-05-29T22:51:22.203Z,50.50
2019-05-29T22:53:52.459Z,50.30
2019-05-29T22:56:20.819Z,50.10
2019-05-29T22:58:49.260Z,50.00
2019-05-29T23:01:17.715Z,49.80
2019-05-29T23:03:46.163Z,49.70
2019-05-29T23:06:14.618Z,49.70
2019-05-29T23:08:43.055Z,49.80
2019-05-29T23:11:11.582Z,49.90
2019-05-29T23:13:40.002Z,50.00
2019-05-29T23:16:08.461Z,49.90
2019-05-29T23:18:36.897Z,49.80
2019-05-29T23:21:05.393Z,49.80
2019-05-29T23:23:33.887Z,49.60
2019-05-29T23:26:03.011Z,49.50
2019-05-29T23:28:31.779Z,49.30
2019-05-29T23:31:01.015Z,49.80
2019-05-29T23:33:30.282Z,48.90
2019-05-29T23:35:59.074Z,48.60
2019-05-29T23:38:27.702Z,48.60
2019-05-29T23:40:57.428Z,48.70
2019-05-29T23:43:26.148Z,48.70
2019-05-29T23:45:55.337Z,48.70
2019-05-29T23:48:23.912Z,48.50
2019-05-29T23:50:53.344Z,48.50
2019-05-29T23:53:21.892Z,48.40
2019-05-29T23:55:50.343Z,48.50
2019-05-29T23:58:19.046Z,48.50
